sensor_id;sensor_type;location;lat;lon;timestamp;temperature;humidity
38995;DHT22;24769;18.712;99.000;2023-05-10T00:00:24;25.70;99.90
38995;DHT22;24769;18.712;99.000;2023-05-10T00:02:51;25.90;99.90
38995;DHT22;24769;18.712;99.000;2023-05-10T00:05:18;26.10;99.90
38995;DHT22;24769;18.712;99.000;2023-05-10T00:07:44;26.20;99.90
38995;DHT22;24769;18.712;99.000;2023-05-10T00:10:11;26.50;99.90
38995;DHT22;24769;18.712;99.000;2023-05-10T00:12:38;26.90;99.90
38995;DHT22;24769;18.712;99.000;2023-05-10T00:15:05;27.30;99.90
38995;DHT22;24769;18.712;99.000;2023-05-10T00:17:32;27.60;99.90
38995;DHT22;24769;18.712;99.000;2023-05-10T00:19:58;27.90;99.90
38995;DHT22;24769;18.712;99.000;2023-05-10T00:22:25;28.10;99.90
38995;DHT22;24769;18.712;99.000;2023-05-10T00:24:51;28.30;99.90
38995;DHT22;24769;18.712;99.000;2023-05-10T00:27:18;28.50;99.90
38995;DHT22;24769;18.712;99.000;2023-05-10T00:29:44;28.50;99.90
38995;DHT22;24769;18.712;99.000;2023-05-10T00:32:11;28.70;99.90
38995;DHT22;24769;18.712;99.000;2023-05-10T00:34:39;29.10;98.20
38995;DHT22;24769;18.712;99.000;2023-05-10T00:37:06;29.50;91.80
38995;DHT22;24769;18.712;99.000;2023-05-10T00:39:33;29.70;88.70
38995;DHT22;24769;18.712;99.000;2023-05-10T00:41:59;29.80;79.30
38995;DHT22;24769;18.712;99.000;2023-05-10T00:44:26;30.20;73.70
38995;DHT22;24769;18.712;99.000;2023-05-10T00:46:53;30.70;65.90
38995;DHT22;24769;18.712;99.000;2023-05-10T00:49:20;30.80;63.80
38995;DHT22;24769;18.712;99.000;2023-05-10T00:51:47;31.10;63.10
38995;DHT22;24769;18.712;99.000;2023-05-10T00:54:15;31.60;59.00
38995;DHT22;24769;18.712;99.000;2023-05-10T00:56:42;31.60;53.20
38995;DHT22;24769;18.712;99.000;2023-05-10T00:59:15;31.70;50.30
38995;DHT22;24769;18.712;99.000;2023-05-10T01:01:45;31.90;48.60
38995;DHT22;24769;18.712;99.000;2023-05-10T01:04:13;31.00;53.70
38995;DHT22;24769;18.712;99.000;2023-05-10T01:06:41;31.20;54.60
38995;DHT22;24769;18.712;99.000;2023-05-10T01:09:07;31.60;51.50
38995;DHT22;24769;18.712;99.000;2023-05-10T01:11:38;31.90;50.70
38995;DHT22;24769;18.712;99.000;2023-05-10T01:14:06;31.90;43.70
38995;DHT22;24769;18.712;99.000;2023-05-10T01:16:37;32.00;45.10
38995;DHT22;24769;18.712;99.000;2023-05-10T01:19:25;31.80;45.50
38995;DHT22;24769;18.712;99.000;2023-05-10T01:35:41;33.00;36.70
38995;DHT22;24769;18.712;99.000;2023-05-10T01:38:33;33.30;36.90
38995;DHT22;24769;18.712;99.000;2023-05-10T01:47:14;31.70;42.50
38995;DHT22;24769;18.712;99.000;2023-05-10T01:49:45;31.60;42.90
38995;DHT22;24769;18.712;99.000;2023-05-10T01:52:18;31.50;45.30
38995;DHT22;24769;18.712;99.000;2023-05-10T01:54:50;31.40;44.30
38995;DHT22;24769;18.712;99.000;2023-05-10T01:57:22;31.20;46.80
38995;DHT22;24769;18.712;99.000;2023-05-10T01:59:52;31.50;44.20
38995;DHT22;24769;18.712;99.000;2023-05-10T02:02:21;31.80;45.30
38995;DHT22;24769;18.712;99.000;2023-05-10T02:04:50;32.10;45.10
38995;DHT22;24769;18.712;99.000;2023-05-10T02:07:17;31.90;41.20
38995;DHT22;24769;18.712;99.000;2023-05-10T02:09:45;31.90;42.90
38995;DHT22;24769;18.712;99.000;2023-05-10T02:12:16;32.10;44.30
38995;DHT22;24769;18.712;99.000;2023-05-10T02:14:45;32.20;44.60
38995;DHT22;24769;18.712;99.000;2023-05-10T02:17:13;32.50;41.20
38995;DHT22;24769;18.712;99.000;2023-05-10T02:19:42;32.60;42.50
38995;DHT22;24769;18.712;99.000;2023-05-10T02:22:10;32.20;42.00
38995;DHT22;24769;18.712;99.000;2023-05-10T02:24:37;32.20;44.80
38995;DHT22;24769;18.712;99.000;2023-05-10T02:27:05;32.50;43.80
38995;DHT22;24769;18.712;99.000;2023-05-10T02:29:33;32.30;42.00
38995;DHT22;24769;18.712;99.000;2023-05-10T02:32:00;32.80;41.40
38995;DHT22;24769;18.712;99.000;2023-05-10T02:34:28;32.60;38.40
38995;DHT22;24769;18.712;99.000;2023-05-10T02:36:57;32.60;42.10
38995;DHT22;24769;18.712;99.000;2023-05-10T02:39:25;33.10;39.20
38995;DHT22;24769;18.712;99.000;2023-05-10T02:41:54;33.20;37.40
38995;DHT22;24769;18.712;99.000;2023-05-10T02:44:23;32.90;38.70
38995;DHT22;24769;18.712;99.000;2023-05-10T02:46:51;33.10;38.00
38995;DHT22;24769;18.712;99.000;2023-05-10T02:49:18;32.60;36.20
38995;DHT22;24769;18.712;99.000;2023-05-10T02:51:49;32.50;38.50
38995;DHT22;24769;18.712;99.000;2023-05-10T02:54:20;32.10;41.20
38995;DHT22;24769;18.712;99.000;2023-05-10T02:56:56;32.80;41.70
38995;DHT22;24769;18.712;99.000;2023-05-10T02:59:23;33.10;39.00
38995;DHT22;24769;18.712;99.000;2023-05-10T03:01:50;32.90;37.90
38995;DHT22;24769;18.712;99.000;2023-05-10T03:04:16;32.30;39.70
38995;DHT22;24769;18.712;99.000;2023-05-10T03:06:43;32.20;38.00
38995;DHT22;24769;18.712;99.000;2023-05-10T03:09:11;32.10;40.30
38995;DHT22;24769;18.712;99.000;2023-05-10T03:14:34;32.40;39.50
38995;DHT22;24769;18.712;99.000;2023-05-10T03:17:12;33.00;38.40
38995;DHT22;24769;18.712;99.000;2023-05-10T03:19:53;33.20;35.00
38995;DHT22;24769;18.712;99.000;2023-05-10T03:22:44;33.40;34.00
38995;DHT22;24769;18.712;99.000;2023-05-10T03:25:12;33.40;33.20
38995;DHT22;24769;18.712;99.000;2023-05-10T03:27:41;33.30;36.50
38995;DHT22;24769;18.712;99.000;2023-05-10T03:30:11;33.50;34.50
38995;DHT22;24769;18.712;99.000;2023-05-10T03:32:38;33.40;34.30
38995;DHT22;24769;18.712;99.000;2023-05-10T03:37:35;33.50;38.00
38995;DHT22;24769;18.712;99.000;2023-05-10T03:40:02;34.10;35.20
38995;DHT22;24769;18.712;99.000;2023-05-10T03:42:29;34.10;34.20
38995;DHT22;24769;18.712;99.000;2023-05-10T03:44:55;33.80;34.50
38995;DHT22;24769;18.712;99.000;2023-05-10T03:47:22;33.80;34.50
38995;DHT22;24769;18.712;99.000;2023-05-10T03:49:49;33.30;35.30
38995;DHT22;24769;18.712;99.000;2023-05-10T03:52:15;33.50;35.40
38995;DHT22;24769;18.712;99.000;2023-05-10T03:54:42;33.40;31.90
38995;DHT22;24769;18.712;99.000;2023-05-10T03:57:08;33.00;33.40
38995;DHT22;24769;18.712;99.000;2023-05-10T03:59:35;33.50;32.70
38995;DHT22;24769;18.712;99.000;2023-05-10T04:02:02;33.80;31.70
38995;DHT22;24769;18.712;99.000;2023-05-10T04:04:28;33.80;29.80
38995;DHT22;24769;18.712;99.000;2023-05-10T04:06:55;33.00;31.70
38995;DHT22;24769;18.712;99.000;2023-05-10T04:09:22;33.10;34.80
38995;DHT22;24769;18.712;99.000;2023-05-10T04:11:48;33.30;28.70
38995;DHT22;24769;18.712;99.000;2023-05-10T04:14:15;33.60;29.40
38995;DHT22;24769;18.712;99.000;2023-05-10T04:16:42;33.80;30.70
38995;DHT22;24769;18.712;99.000;2023-05-10T04:19:09;33.80;30.90
38995;DHT22;24769;18.712;99.000;2023-05-10T04:21:36;33.50;30.60
38995;DHT22;24769;18.712;99.000;2023-05-10T04:24:03;33.40;29.80
38995;DHT22;24769;18.712;99.000;2023-05-10T04:26:29;33.90;30.70
38995;DHT22;24769;18.712;99.000;2023-05-10T04:28:57;34.20;31.60
38995;DHT22;24769;18.712;99.000;2023-05-10T04:31:23;34.50;29.90
38995;DHT22;24769;18.712;99.000;2023-05-10T04:33:50;34.60;25.80
38995;DHT22;24769;18.712;99.000;2023-05-10T04:36:16;34.30;25.70
38995;DHT22;24769;18.712;99.000;2023-05-10T04:38:43;33.90;29.90
38995;DHT22;24769;18.712;99.000;2023-05-10T04:41:10;33.70;29.90
38995;DHT22;24769;18.712;99.000;2023-05-10T04:43:37;33.70;30.30
38995;DHT22;24769;18.712;99.000;2023-05-10T04:46:05;34.20;32.00
38995;DHT22;24769;18.712;99.000;2023-05-10T04:48:32;34.50;32.50
38995;DHT22;24769;18.712;99.000;2023-05-10T04:50:59;34.30;29.20
38995;DHT22;24769;18.712;99.000;2023-05-10T04:53:26;34.00;29.90
38995;DHT22;24769;18.712;99.000;2023-05-10T04:55:52;34.30;30.90
38995;DHT22;24769;18.712;99.000;2023-05-10T04:58:19;34.50;31.20
38995;DHT22;24769;18.712;99.000;2023-05-10T05:00:45;34.30;32.00
38995;DHT22;24769;18.712;99.000;2023-05-10T05:03:12;34.30;32.70
38995;DHT22;24769;18.712;99.000;2023-05-10T05:05:39;33.90;30.70
38995;DHT22;24769;18.712;99.000;2023-05-10T05:08:05;34.20;29.30
38995;DHT22;24769;18.712;99.000;2023-05-10T05:10:32;34.40;32.50
38995;DHT22;24769;18.712;99.000;2023-05-10T05:12:58;34.40;30.20
38995;DHT22;24769;18.712;99.000;2023-05-10T05:15:25;34.50;29.40
38995;DHT22;24769;18.712;99.000;2023-05-10T05:17:52;34.30;30.80
38995;DHT22;24769;18.712;99.000;2023-05-10T05:20:19;34.30;31.10
38995;DHT22;24769;18.712;99.000;2023-05-10T05:22:45;34.40;30.10
38995;DHT22;24769;18.712;99.000;2023-05-10T05:25:12;34.20;30.00
38995;DHT22;24769;18.712;99.000;2023-05-10T05:27:38;34.20;30.30
38995;DHT22;24769;18.712;99.000;2023-05-10T05:30:06;34.00;31.30
38995;DHT22;24769;18.712;99.000;2023-05-10T05:32:33;34.10;28.10
38995;DHT22;24769;18.712;99.000;2023-05-10T05:34:59;34.20;30.50
38995;DHT22;24769;18.712;99.000;2023-05-10T05:37:26;34.50;30.40
38995;DHT22;24769;18.712;99.000;2023-05-10T05:39:52;34.60;28.30
38995;DHT22;24769;18.712;99.000;2023-05-10T05:42:20;34.30;29.50
38995;DHT22;24769;18.712;99.000;2023-05-10T05:44:47;34.40;27.90
38995;DHT22;24769;18.712;99.000;2023-05-10T05:47:14;34.60;28.40
38995;DHT22;24769;18.712;99.000;2023-05-10T05:49:42;34.60;28.70
38995;DHT22;24769;18.712;99.000;2023-05-10T05:52:12;34.50;28.60
38995;DHT22;24769;18.712;99.000;2023-05-10T05:54:38;34.40;28.30
38995;DHT22;24769;18.712;99.000;2023-05-10T05:57:05;34.50;28.00
38995;DHT22;24769;18.712;99.000;2023-05-10T05:59:32;34.60;28.30
38995;DHT22;24769;18.712;99.000;2023-05-10T06:01:59;34.80;27.90
38995;DHT22;24769;18.712;99.000;2023-05-10T06:04:26;34.70;27.40
38995;DHT22;24769;18.712;99.000;2023-05-10T06:06:53;34.70;27.90
38995;DHT22;24769;18.712;99.000;2023-05-10T06:09:19;34.60;29.00
38995;DHT22;24769;18.712;99.000;2023-05-10T06:11:46;34.70;28.30
38995;DHT22;24769;18.712;99.000;2023-05-10T06:14:13;34.60;27.10
38995;DHT22;24769;18.712;99.000;2023-05-10T06:16:39;34.20;27.60
38995;DHT22;24769;18.712;99.000;2023-05-10T06:19:06;34.00;26.90
38995;DHT22;24769;18.712;99.000;2023-05-10T06:21:33;34.10;29.10
38995;DHT22;24769;18.712;99.000;2023-05-10T06:23:59;34.10;28.30
38995;DHT22;24769;18.712;99.000;2023-05-10T06:26:26;34.20;25.70
38995;DHT22;24769;18.712;99.000;2023-05-10T06:28:53;34.60;27.90
38995;DHT22;24769;18.712;99.000;2023-05-10T06:31:19;34.60;27.20
38995;DHT22;24769;18.712;99.000;2023-05-10T06:33:46;34.70;28.10
38995;DHT22;24769;18.712;99.000;2023-05-10T06:36:12;34.60;27.40
38995;DHT22;24769;18.712;99.000;2023-05-10T06:38:39;34.20;25.00
38995;DHT22;24769;18.712;99.000;2023-05-10T06:41:06;33.70;28.50
38995;DHT22;24769;18.712;99.000;2023-05-10T06:43:32;33.80;30.80
38995;DHT22;24769;18.712;99.000;2023-05-10T06:45:59;33.60;30.10
38995;DHT22;24769;18.712;99.000;2023-05-10T06:48:25;33.40;32.70
38995;DHT22;24769;18.712;99.000;2023-05-10T06:50:52;33.30;30.80
38995;DHT22;24769;18.712;99.000;2023-05-10T06:53:19;33.20;31.20
38995;DHT22;24769;18.712;99.000;2023-05-10T06:55:45;33.10;31.30
38995;DHT22;24769;18.712;99.000;2023-05-10T06:58:12;33.20;31.40
38995;DHT22;24769;18.712;99.000;2023-05-10T07:00:38;33.20;32.70
38995;DHT22;24769;18.712;99.000;2023-05-10T07:03:06;33.30;33.70
38995;DHT22;24769;18.712;99.000;2023-05-10T07:05:33;33.30;33.40
38995;DHT22;24769;18.712;99.000;2023-05-10T07:07:59;33.30;33.50
38995;DHT22;24769;18.712;99.000;2023-05-10T07:10:26;33.50;33.30
38995;DHT22;24769;18.712;99.000;2023-05-10T07:12:53;33.60;32.70
38995;DHT22;24769;18.712;99.000;2023-05-10T07:15:20;33.60;33.40
38995;DHT22;24769;18.712;99.000;2023-05-10T07:17:47;33.70;30.90
38995;DHT22;24769;18.712;99.000;2023-05-10T07:20:13;33.60;31.70
38995;DHT22;24769;18.712;99.000;2023-05-10T07:22:40;33.70;30.70
38995;DHT22;24769;18.712;99.000;2023-05-10T07:25:07;34.10;31.80
38995;DHT22;24769;18.712;99.000;2023-05-10T07:27:33;34.30;30.70
38995;DHT22;24769;18.712;99.000;2023-05-10T07:30:00;34.60;29.30
38995;DHT22;24769;18.712;99.000;2023-05-10T07:32:27;34.90;28.10
38995;DHT22;24769;18.712;99.000;2023-05-10T07:34:54;34.60;27.10
38995;DHT22;24769;18.712;99.000;2023-05-10T07:37:20;34.40;28.80
38995;DHT22;24769;18.712;99.000;2023-05-10T07:39:47;34.00;29.50
38995;DHT22;24769;18.712;99.000;2023-05-10T07:42:13;34.00;30.90
38995;DHT22;24769;18.712;99.000;2023-05-10T07:44:40;34.20;31.80
38995;DHT22;24769;18.712;99.000;2023-05-10T07:47:07;34.70;29.50
38995;DHT22;24769;18.712;99.000;2023-05-10T07:49:34;34.70;29.00
38995;DHT22;24769;18.712;99.000;2023-05-10T07:52:03;34.60;31.20
38995;DHT22;24769;18.712;99.000;2023-05-10T07:54:29;34.70;29.20
38995;DHT22;24769;18.712;99.000;2023-05-10T07:56:56;34.50;30.40
38995;DHT22;24769;18.712;99.000;2023-05-10T07:59:23;34.40;31.50
38995;DHT22;24769;18.712;99.000;2023-05-10T08:01:49;34.20;30.90
38995;DHT22;24769;18.712;99.000;2023-05-10T08:04:16;34.00;33.80
38995;DHT22;24769;18.712;99.000;2023-05-10T08:06:42;34.00;30.70
38995;DHT22;24769;18.712;99.000;2023-05-10T08:09:09;34.00;32.70
38995;DHT22;24769;18.712;99.000;2023-05-10T08:11:36;33.80;32.80
38995;DHT22;24769;18.712;99.000;2023-05-10T08:14:03;33.50;33.10
38995;DHT22;24769;18.712;99.000;2023-05-10T08:16:30;33.30;33.90
38995;DHT22;24769;18.712;99.000;2023-05-10T08:18:56;33.10;33.50
38995;DHT22;24769;18.712;99.000;2023-05-10T08:21:23;33.10;37.70
38995;DHT22;24769;18.712;99.000;2023-05-10T08:23:49;33.20;37.30
38995;DHT22;24769;18.712;99.000;2023-05-10T08:26:16;33.10;35.40
38995;DHT22;24769;18.712;99.000;2023-05-10T08:28:43;33.00;38.40
38995;DHT22;24769;18.712;99.000;2023-05-10T08:31:09;33.00;37.70
38995;DHT22;24769;18.712;99.000;2023-05-10T08:33:36;32.80;35.90
38995;DHT22;24769;18.712;99.000;2023-05-10T08:36:02;32.80;36.40
38995;DHT22;24769;18.712;99.000;2023-05-10T08:38:29;32.70;37.80
38995;DHT22;24769;18.712;99.000;2023-05-10T08:40:56;32.70;39.70
38995;DHT22;24769;18.712;99.000;2023-05-10T08:43:28;32.70;38.90
38995;DHT22;24769;18.712;99.000;2023-05-10T08:45:56;32.50;38.00
38995;DHT22;24769;18.712;99.000;2023-05-10T08:48:29;32.40;40.10
38995;DHT22;24769;18.712;99.000;2023-05-10T08:50:58;32.50;39.30
38995;DHT22;24769;18.712;99.000;2023-05-10T08:53:27;32.50;40.20
38995;DHT22;24769;18.712;99.000;2023-05-10T08:55:57;32.50;39.50
38995;DHT22;24769;18.712;99.000;2023-05-10T08:58:24;32.70;39.00
38995;DHT22;24769;18.712;99.000;2023-05-10T09:00:53;32.60;37.50
38995;DHT22;24769;18.712;99.000;2023-05-10T09:03:19;32.40;40.10
38995;DHT22;24769;18.712;99.000;2023-05-10T09:05:46;32.60;38.20
38995;DHT22;24769;18.712;99.000;2023-05-10T09:08:14;32.50;40.10
38995;DHT22;24769;18.712;99.000;2023-05-10T09:10:44;32.70;39.90
38995;DHT22;24769;18.712;99.000;2023-05-10T09:13:14;32.90;37.20
38995;DHT22;24769;18.712;99.000;2023-05-10T09:15:43;33.20;38.30
38995;DHT22;24769;18.712;99.000;2023-05-10T09:18:10;33.20;35.10
38995;DHT22;24769;18.712;99.000;2023-05-10T09:20:36;33.20;38.20
38995;DHT22;24769;18.712;99.000;2023-05-10T09:23:03;33.30;35.30
38995;DHT22;24769;18.712;99.000;2023-05-10T09:25:30;33.60;36.30
38995;DHT22;24769;18.712;99.000;2023-05-10T09:27:59;33.40;36.10
38995;DHT22;24769;18.712;99.000;2023-05-10T09:30:30;33.70;35.10
38995;DHT22;24769;18.712;99.000;2023-05-10T09:32:58;33.70;35.60
38995;DHT22;24769;18.712;99.000;2023-05-10T09:38:02;33.40;34.90
38995;DHT22;24769;18.712;99.000;2023-05-10T09:40:30;33.20;34.60
38995;DHT22;24769;18.712;99.000;2023-05-10T09:43:07;33.10;36.60
38995;DHT22;24769;18.712;99.000;2023-05-10T09:45:35;33.00;36.80
38995;DHT22;24769;18.712;99.000;2023-05-10T09:48:02;33.10;35.00
38995;DHT22;24769;18.712;99.000;2023-05-10T09:50:30;33.10;32.90
38995;DHT22;24769;18.712;99.000;2023-05-10T09:53:01;33.10;33.60
38995;DHT22;24769;18.712;99.000;2023-05-10T09:55:42;33.00;35.90
38995;DHT22;24769;18.712;99.000;2023-05-10T09:58:13;32.80;36.20
38995;DHT22;24769;18.712;99.000;2023-05-10T10:00:44;32.70;36.00
38995;DHT22;24769;18.712;99.000;2023-05-10T10:03:18;32.50;36.80
38995;DHT22;24769;18.712;99.000;2023-05-10T10:05:45;32.60;35.90
38995;DHT22;24769;18.712;99.000;2023-05-10T10:08:13;32.60;34.60
38995;DHT22;24769;18.712;99.000;2023-05-10T10:10:40;32.50;36.80
38995;DHT22;24769;18.712;99.000;2023-05-10T10:13:08;32.50;36.20
38995;DHT22;24769;18.712;99.000;2023-05-10T10:15:35;32.40;37.00
38995;DHT22;24769;18.712;99.000;2023-05-10T10:18:02;32.40;36.80
38995;DHT22;24769;18.712;99.000;2023-05-10T10:20:30;32.50;37.80
38995;DHT22;24769;18.712;99.000;2023-05-10T10:22:56;32.60;39.20
38995;DHT22;24769;18.712;99.000;2023-05-10T10:25:23;32.70;39.00
38995;DHT22;24769;18.712;99.000;2023-05-10T10:30:43;32.60;35.90
38995;DHT22;24769;18.712;99.000;2023-05-10T10:35:57;32.60;35.20
38995;DHT22;24769;18.712;99.000;2023-05-10T10:38:24;32.50;36.70
38995;DHT22;24769;18.712;99.000;2023-05-10T10:41:10;32.50;34.40
38995;DHT22;24769;18.712;99.000;2023-05-10T10:43:37;32.50;36.50
38995;DHT22;24769;18.712;99.000;2023-05-10T10:46:17;32.40;36.80
38995;DHT22;24769;18.712;99.000;2023-05-10T10:49:31;32.30;38.70
38995;DHT22;24769;18.712;99.000;2023-05-10T10:51:38;32.20;40.50
38995;DHT22;24769;18.712;99.000;2023-05-10T10:54:28;32.10;41.20
38995;DHT22;24769;18.712;99.000;2023-05-10T10:57:14;32.00;41.00
38995;DHT22;24769;18.712;99.000;2023-05-10T10:59:44;31.90;39.80
38995;DHT22;24769;18.712;99.000;2023-05-10T11:08:10;31.80;42.00
38995;DHT22;24769;18.712;99.000;2023-05-10T11:10:38;31.70;43.80
38995;DHT22;24769;18.712;99.000;2023-05-10T11:13:11;31.60;45.60
38995;DHT22;24769;18.712;99.000;2023-05-10T11:15:48;31.40;47.40
38995;DHT22;24769;18.712;99.000;2023-05-10T11:18:20;31.30;48.10
38995;DHT22;24769;18.712;99.000;2023-05-10T11:20:59;31.30;48.50
38995;DHT22;24769;18.712;99.000;2023-05-10T11:23:33;31.20;51.00
38995;DHT22;24769;18.712;99.000;2023-05-10T11:26:14;31.10;49.10
38995;DHT22;24769;18.712;99.000;2023-05-10T11:28:44;31.00;52.10
38995;DHT22;24769;18.712;99.000;2023-05-10T11:31:17;31.00;52.20
38995;DHT22;24769;18.712;99.000;2023-05-10T11:33:49;31.00;49.60
38995;DHT22;24769;18.712;99.000;2023-05-10T11:36:18;30.90;51.40
38995;DHT22;24769;18.712;99.000;2023-05-10T11:38:45;30.70;52.10
38995;DHT22;24769;18.712;99.000;2023-05-10T11:41:13;30.70;52.30
38995;DHT22;24769;18.712;99.000;2023-05-10T11:43:40;30.60;53.40
38995;DHT22;24769;18.712;99.000;2023-05-10T11:46:09;30.50;55.20
38995;DHT22;24769;18.712;99.000;2023-05-10T11:48:40;30.40;58.50
38995;DHT22;24769;18.712;99.000;2023-05-10T11:51:08;30.30;61.70
38995;DHT22;24769;18.712;99.000;2023-05-10T11:53:35;30.20;71.20
38995;DHT22;24769;18.712;99.000;2023-05-10T11:56:09;30.00;72.40
38995;DHT22;24769;18.712;99.000;2023-05-10T11:58:38;29.90;76.20
38995;DHT22;24769;18.712;99.000;2023-05-10T12:01:06;29.80;78.30
38995;DHT22;24769;18.712;99.000;2023-05-10T12:03:34;29.80;81.40
38995;DHT22;24769;18.712;99.000;2023-05-10T12:06:02;29.70;80.70
38995;DHT22;24769;18.712;99.000;2023-05-10T12:08:30;29.60;83.30
38995;DHT22;24769;18.712;99.000;2023-05-10T12:11:08;29.50;82.80
38995;DHT22;24769;18.712;99.000;2023-05-10T12:13:40;29.50;83.60
38995;DHT22;24769;18.712;99.000;2023-05-10T12:16:25;29.40;81.50
38995;DHT22;24769;18.712;99.000;2023-05-10T12:18:53;29.70;85.30
38995;DHT22;24769;18.712;99.000;2023-05-10T12:21:21;29.60;77.40
38995;DHT22;24769;18.712;99.000;2023-05-10T12:23:53;29.60;78.90
38995;DHT22;24769;18.712;99.000;2023-05-10T12:26:24;29.50;82.60
38995;DHT22;24769;18.712;99.000;2023-05-10T12:28:54;29.40;83.00
38995;DHT22;24769;18.712;99.000;2023-05-10T12:31:20;29.30;83.10
38995;DHT22;24769;18.712;99.000;2023-05-10T12:33:47;29.30;79.00
38995;DHT22;24769;18.712;99.000;2023-05-10T12:36:16;29.40;81.70
38995;DHT22;24769;18.712;99.000;2023-05-10T12:38:45;29.40;73.90
38995;DHT22;24769;18.712;99.000;2023-05-10T12:41:17;29.30;77.30
38995;DHT22;24769;18.712;99.000;2023-05-10T12:43:45;29.30;79.60
38995;DHT22;24769;18.712;99.000;2023-05-10T12:46:14;29.30;82.40
38995;DHT22;24769;18.712;99.000;2023-05-10T12:48:42;29.20;88.80
38995;DHT22;24769;18.712;99.000;2023-05-10T12:51:09;29.10;91.90
38995;DHT22;24769;18.712;99.000;2023-05-10T12:53:38;29.10;88.30
38995;DHT22;24769;18.712;99.000;2023-05-10T12:56:05;29.00;94.90
38995;DHT22;24769;18.712;99.000;2023-05-10T12:58:32;28.80;94.70
38995;DHT22;24769;18.712;99.000;2023-05-10T13:00:59;28.80;93.60
38995;DHT22;24769;18.712;99.000;2023-05-10T13:03:26;28.80;93.90
38995;DHT22;24769;18.712;99.000;2023-05-10T13:05:53;28.70;90.40
38995;DHT22;24769;18.712;99.000;2023-05-10T13:08:19;28.70;85.70
38995;DHT22;24769;18.712;99.000;2023-05-10T13:10:46;28.80;86.00
38995;DHT22;24769;18.712;99.000;2023-05-10T13:13:12;28.90;88.00
38995;DHT22;24769;18.712;99.000;2023-05-10T13:15:39;29.00;86.50
38995;DHT22;24769;18.712;99.000;2023-05-10T13:18:06;29.00;84.60
38995;DHT22;24769;18.712;99.000;2023-05-10T13:20:32;29.00;85.30
38995;DHT22;24769;18.712;99.000;2023-05-10T13:22:59;28.90;82.40
38995;DHT22;24769;18.712;99.000;2023-05-10T13:25:25;28.90;81.90
38995;DHT22;24769;18.712;99.000;2023-05-10T13:27:52;28.90;84.30
38995;DHT22;24769;18.712;99.000;2023-05-10T13:30:19;28.90;86.90
38995;DHT22;24769;18.712;99.000;2023-05-10T13:32:46;28.80;85.90
38995;DHT22;24769;18.712;99.000;2023-05-10T13:35:13;28.90;84.60
38995;DHT22;24769;18.712;99.000;2023-05-10T13:37:39;28.90;85.50
38995;DHT22;24769;18.712;99.000;2023-05-10T13:40:06;28.80;83.70
38995;DHT22;24769;18.712;99.000;2023-05-10T13:42:33;28.80;82.40
38995;DHT22;24769;18.712;99.000;2023-05-10T13:45:00;28.90;81.90
38995;DHT22;24769;18.712;99.000;2023-05-10T13:47:28;28.90;84.60
38995;DHT22;24769;18.712;99.000;2023-05-10T13:49:54;28.80;85.60
38995;DHT22;24769;18.712;99.000;2023-05-10T13:52:22;28.90;83.80
38995;DHT22;24769;18.712;99.000;2023-05-10T13:54:48;28.80;83.10
38995;DHT22;24769;18.712;99.000;2023-05-10T13:57:15;28.80;83.50
38995;DHT22;24769;18.712;99.000;2023-05-10T13:59:42;28.60;87.10
38995;DHT22;24769;18.712;99.000;2023-05-10T14:02:09;28.50;87.40
38995;DHT22;24769;18.712;99.000;2023-05-10T14:04:38;28.50;91.90
38995;DHT22;24769;18.712;99.000;2023-05-10T14:07:05;28.40;94.10
38995;DHT22;24769;18.712;99.000;2023-05-10T14:09:31;28.40;91.50
38995;DHT22;24769;18.712;99.000;2023-05-10T14:11:58;28.30;91.90
38995;DHT22;24769;18.712;99.000;2023-05-10T14:14:25;28.20;96.00
38995;DHT22;24769;18.712;99.000;2023-05-10T14:16:51;28.10;91.80
38995;DHT22;24769;18.712;99.000;2023-05-10T14:19:18;28.20;89.80
38995;DHT22;24769;18.712;99.000;2023-05-10T14:21:45;28.30;89.20
38995;DHT22;24769;18.712;99.000;2023-05-10T14:24:11;28.10;90.30
38995;DHT22;24769;18.712;99.000;2023-05-10T14:26:38;28.10;91.20
38995;DHT22;24769;18.712;99.000;2023-05-10T14:29:04;28.10;93.00
38995;DHT22;24769;18.712;99.000;2023-05-10T14:31:31;28.10;91.20
38995;DHT22;24769;18.712;99.000;2023-05-10T14:33:58;28.10;94.00
38995;DHT22;24769;18.712;99.000;2023-05-10T14:36:25;28.10;93.60
38995;DHT22;24769;18.712;99.000;2023-05-10T14:38:51;28.30;92.30
38995;DHT22;24769;18.712;99.000;2023-05-10T14:41:18;28.30;91.60
38995;DHT22;24769;18.712;99.000;2023-05-10T14:43:44;28.30;90.80
38995;DHT22;24769;18.712;99.000;2023-05-10T14:46:11;28.20;92.80
38995;DHT22;24769;18.712;99.000;2023-05-10T14:48:38;28.10;94.00
38995;DHT22;24769;18.712;99.000;2023-05-10T14:51:05;28.10;95.90
38995;DHT22;24769;18.712;99.000;2023-05-10T14:53:32;28.10;99.90
38995;DHT22;24769;18.712;99.000;2023-05-10T14:55:58;28.00;98.80
38995;DHT22;24769;18.712;99.000;2023-05-10T14:58:27;28.00;99.90
38995;DHT22;24769;18.712;99.000;2023-05-10T15:00:53;27.90;99.90
38995;DHT22;24769;18.712;99.000;2023-05-10T15:03:20;28.00;99.90
38995;DHT22;24769;18.712;99.000;2023-05-10T15:05:47;28.00;99.00
38995;DHT22;24769;18.712;99.000;2023-05-10T15:08:13;28.00;99.90
38995;DHT22;24769;18.712;99.000;2023-05-10T15:10:40;27.80;97.70
38995;DHT22;24769;18.712;99.000;2023-05-10T15:13:07;27.90;99.20
38995;DHT22;24769;18.712;99.000;2023-05-10T15:15:34;27.90;99.90
38995;DHT22;24769;18.712;99.000;2023-05-10T15:18:00;27.90;99.60
38995;DHT22;24769;18.712;99.000;2023-05-10T15:20:27;27.90;99.90
38995;DHT22;24769;18.712;99.000;2023-05-10T15:22:54;27.90;97.80
38995;DHT22;24769;18.712;99.000;2023-05-10T15:25:20;27.80;98.00
38995;DHT22;24769;18.712;99.000;2023-05-10T15:27:47;27.80;97.50
38995;DHT22;24769;18.712;99.000;2023-05-10T15:30:14;27.80;99.90
38995;DHT22;24769;18.712;99.000;2023-05-10T15:32:40;27.80;98.90
38995;DHT22;24769;18.712;99.000;2023-05-10T15:35:09;27.80;98.90
38995;DHT22;24769;18.712;99.000;2023-05-10T15:37:38;27.80;97.60
38995;DHT22;24769;18.712;99.000;2023-05-10T15:40:05;27.70;96.80
38995;DHT22;24769;18.712;99.000;2023-05-10T15:42:32;27.80;97.10
38995;DHT22;24769;18.712;99.000;2023-05-10T15:44:59;27.70;96.40
38995;DHT22;24769;18.712;99.000;2023-05-10T15:47:26;27.80;96.20
38995;DHT22;24769;18.712;99.000;2023-05-10T15:49:55;27.80;96.90
38995;DHT22;24769;18.712;99.000;2023-05-10T15:52:22;27.80;97.70
38995;DHT22;24769;18.712;99.000;2023-05-10T15:54:49;27.70;96.60
38995;DHT22;24769;18.712;99.000;2023-05-10T15:57:16;27.80;95.30
38995;DHT22;24769;18.712;99.000;2023-05-10T15:59:43;27.80;92.00